sensor_id;sensor_type;location;lat;lon;timestamp;noise_LAeq;noise_LA_min;noise_LA_max;noise_LA01;noise_LA95
42701;Laerm;28316;49.504;8.526;2022-12-19T00:01:32;41.68;40.33;42.71;;
42701;Laerm;28316;49.504;8.526;2022-12-19T00:04:02;41.73;40.43;42.88;;
42701;Laerm;28316;49.504;8.526;2022-12-19T00:06:30;41.70;40.33;42.65;;
42701;Laerm;28316;49.504;8.526;2022-12-19T00:08:57;41.71;40.43;42.71;;
42701;Laerm;28316;49.504;8.526;2022-12-19T00:11:26;41.76;40.53;42.98;;
42701;Laerm;28316;49.504;8.526;2022-12-19T00:13:52;41.82;40.62;42.88;;
42701;Laerm;28316;49.504;8.526;2022-12-19T00:16:22;41.82;40.71;43.09;;
42701;Laerm;28316;49.504;8.526;2022-12-19T00:18:49;41.82;40.53;43.09;;
42701;Laerm;28316;49.504;8.526;2022-12-19T00:21:19;41.95;40.89;42.98;;
42701;Laerm;28316;49.504;8.526;2022-12-19T00:23:45;42.02;40.80;43.14;;
42701;Laerm;28316;49.504;8.526;2022-12-19T00:26:16;42.02;40.53;43.04;;
42701;Laerm;28316;49.504;8.526;2022-12-19T00:28:45;42.04;40.80;43.09;;
42701;Laerm;28316;49.504;8.526;2022-12-19T00:31:12;42.09;40.98;43.19;;
42701;Laerm;28316;49.504;8.526;2022-12-19T00:33:38;42.13;40.98;43.14;;
42701;Laerm;28316;49.504;8.526;2022-12-19T00:36:08;42.22;41.14;43.19;;
42701;Laerm;28316;49.504;8.526;2022-12-19T00:38:34;42.28;41.06;43.54;;
42701;Laerm;28316;49.504;8.526;2022-12-19T00:41:13;42.30;41.06;43.37;;
42701;Laerm;28316;49.504;8.526;2022-12-19T00:43:39;42.31;41.26;43.29;;
42701;Laerm;28316;49.504;8.526;2022-12-19T00:46:09;42.32;40.98;43.39;;
42701;Laerm;28316;49.504;8.526;2022-12-19T00:48:35;42.32;41.22;43.60;;
42701;Laerm;28316;49.504;8.526;2022-12-19T00:51:13;42.32;40.98;43.29;;
42701;Laerm;28316;49.504;8.526;2022-12-19T00:53:39;42.31;40.89;43.24;;
42701;Laerm;28316;49.504;8.526;2022-12-19T00:56:10;42.30;41.06;43.49;;
42701;Laerm;28316;49.504;8.526;2022-12-19T00:58:36;42.29;41.06;43.14;;
42701;Laerm;28316;49.504;8.526;2022-12-19T01:01:16;42.28;40.89;43.39;;
42701;Laerm;28316;49.504;8.526;2022-12-19T01:03:42;42.28;40.80;43.44;;
42701;Laerm;28316;49.504;8.526;2022-12-19T01:06:08;42.25;40.98;43.14;;
42701;Laerm;28316;49.504;8.526;2022-12-19T01:08:34;42.24;41.06;43.37;;
42701;Laerm;28316;49.504;8.526;2022-12-19T01:10:59;42.23;40.98;43.24;;
42701;Laerm;28316;49.504;8.526;2022-12-19T01:13:28;42.23;40.80;43.24;;
42701;Laerm;28316;49.504;8.526;2022-12-19T01:15:55;42.21;41.06;43.19;;
42701;Laerm;28316;49.504;8.526;2022-12-19T01:18:21;41.74;39.81;43.19;;
42701;Laerm;28316;49.504;8.526;2022-12-19T01:20:47;41.03;39.34;42.59;;
42701;Laerm;28316;49.504;8.526;2022-12-19T01:23:14;41.73;40.53;42.88;;
42701;Laerm;28316;49.504;8.526;2022-12-19T01:25:41;41.80;40.53;42.93;;
42701;Laerm;28316;49.504;8.526;2022-12-19T01:28:13;41.89;40.62;43.04;;
42701;Laerm;28316;49.504;8.526;2022-12-19T01:30:40;41.96;40.80;42.98;;
42701;Laerm;28316;49.504;8.526;2022-12-19T01:33:09;41.97;40.80;43.09;;
42701;Laerm;28316;49.504;8.526;2022-12-19T01:35:37;41.95;40.80;43.04;;
42701;Laerm;28316;49.504;8.526;2022-12-19T01:38:04;42.01;40.89;43.09;;
42701;Laerm;28316;49.504;8.526;2022-12-19T01:40:30;42.04;40.89;43.04;;
42701;Laerm;28316;49.504;8.526;2022-12-19T01:42:56;42.06;40.98;43.24;;
42701;Laerm;28316;49.504;8.526;2022-12-19T01:45:30;42.08;40.89;42.98;;
42701;Laerm;28316;49.504;8.526;2022-12-19T01:48:30;42.09;40.98;43.14;;
42701;Laerm;28316;49.504;8.526;2022-12-19T01:51:13;42.09;40.89;43.04;;
42701;Laerm;28316;49.504;8.526;2022-12-19T01:53:47;42.11;40.89;43.14;;
42701;Laerm;28316;49.504;8.526;2022-12-19T01:56:15;42.11;40.89;43.14;;
42701;Laerm;28316;49.504;8.526;2022-12-19T01:58:42;42.13;40.80;43.14;;
42701;Laerm;28316;49.504;8.526;2022-12-19T02:01:13;42.16;40.98;43.24;;
42701;Laerm;28316;49.504;8.526;2022-12-19T02:03:39;42.15;40.80;43.19;;
42701;Laerm;28316;49.504;8.526;2022-12-19T02:06:06;42.10;40.98;43.29;;
42701;Laerm;28316;49.504;8.526;2022-12-19T02:08:34;42.13;40.71;43.19;;
42701;Laerm;28316;49.504;8.526;2022-12-19T02:11:00;42.18;40.80;43.29;;
42701;Laerm;28316;49.504;8.526;2022-12-19T02:13:26;42.23;40.98;43.29;;
42701;Laerm;28316;49.504;8.526;2022-12-19T02:16:17;42.26;40.71;43.49;;
42701;Laerm;28316;49.504;8.526;2022-12-19T02:25:07;42.34;41.22;43.34;;
42701;Laerm;28316;49.504;8.526;2022-12-19T02:33:55;42.34;41.14;43.49;;
42701;Laerm;28316;49.504;8.526;2022-12-19T02:36:40;42.25;40.89;43.39;;
42701;Laerm;28316;49.504;8.526;2022-12-19T02:39:22;42.20;41.06;43.29;;
42701;Laerm;28316;49.504;8.526;2022-12-19T02:41:56;42.18;40.98;43.14;;
42701;Laerm;28316;49.504;8.526;2022-12-19T02:46:58;42.24;41.06;43.24;;
42701;Laerm;28316;49.504;8.526;2022-12-19T02:49:26;42.30;41.14;43.49;;
42701;Laerm;28316;49.504;8.526;2022-12-19T02:51:52;42.34;40.80;43.34;;
42701;Laerm;28316;49.504;8.526;2022-12-19T02:54:18;42.37;41.30;43.39;;
42701;Laerm;28316;49.504;8.526;2022-12-19T02:56:56;42.41;41.14;43.39;;
42701;Laerm;28316;49.504;8.526;2022-12-19T02:59:49;42.40;41.30;43.68;;
42701;Laerm;28316;49.504;8.526;2022-12-19T03:09:09;42.29;41.19;43.39;;
42701;Laerm;28316;49.504;8.526;2022-12-19T03:11:38;42.38;41.22;43.49;;
42701;Laerm;28316;49.504;8.526;2022-12-19T03:14:11;42.46;41.30;43.39;;
42701;Laerm;28316;49.504;8.526;2022-12-19T03:16:38;42.48;41.38;43.49;;
42701;Laerm;28316;49.504;8.526;2022-12-19T03:19:09;42.49;40.98;43.54;;
42701;Laerm;28316;49.504;8.526;2022-12-19T03:21:48;42.50;41.14;43.58;;
42701;Laerm;28316;49.504;8.526;2022-12-19T03:24:16;42.53;41.38;43.58;;
42701;Laerm;28316;49.504;8.526;2022-12-19T03:26:59;42.53;41.22;43.49;;
42701;Laerm;28316;49.504;8.526;2022-12-19T03:29:55;42.54;41.22;43.60;;
42701;Laerm;28316;49.504;8.526;2022-12-19T03:32:25;42.53;41.30;43.55;;
42701;Laerm;28316;49.504;8.526;2022-12-19T03:35:06;41.96;40.13;43.39;;
42701;Laerm;28316;49.504;8.526;2022-12-19T03:37:37;41.23;39.92;42.41;;
42701;Laerm;28316;49.504;8.526;2022-12-19T03:40:14;41.41;40.08;42.53;;
42701;Laerm;28316;49.504;8.526;2022-12-19T03:42:41;41.73;40.13;42.82;;
42701;Laerm;28316;49.504;8.526;2022-12-19T03:45:51;41.82;40.43;43.09;;
42701;Laerm;28316;49.504;8.526;2022-12-19T03:48:30;41.92;40.71;43.34;;
42701;Laerm;28316;49.504;8.526;2022-12-19T03:51:35;41.83;40.43;42.82;;
42701;Laerm;28316;49.504;8.526;2022-12-19T03:54:28;41.73;40.33;42.71;;
42701;Laerm;28316;49.504;8.526;2022-12-19T04:00:12;41.77;40.33;42.76;;
42701;Laerm;28316;49.504;8.526;2022-12-19T04:02:41;41.80;40.53;42.88;;
42701;Laerm;28316;49.504;8.526;2022-12-19T04:05:12;41.19;39.81;42.74;;
42701;Laerm;28316;49.504;8.526;2022-12-19T04:07:40;41.17;39.58;42.41;;
42701;Laerm;28316;49.504;8.526;2022-12-19T04:10:11;41.20;39.46;42.53;;
42701;Laerm;28316;49.504;8.526;2022-12-19T04:12:49;39.90;37.70;41.82;;
42701;Laerm;28316;49.504;8.526;2022-12-19T04:15:16;39.75;37.32;41.30;;
42701;Laerm;28316;49.504;8.526;2022-12-19T04:17:47;40.80;38.67;42.09;;
42701;Laerm;28316;49.504;8.526;2022-12-19T04:20:20;41.00;39.57;42.29;;
42701;Laerm;28316;49.504;8.526;2022-12-19T04:25:30;41.82;40.43;42.76;;
42701;Laerm;28316;49.504;8.526;2022-12-19T04:28:06;41.94;40.71;43.14;;
42701;Laerm;28316;49.504;8.526;2022-12-19T04:30:37;42.07;40.89;43.14;;
42701;Laerm;28316;49.504;8.526;2022-12-19T04:33:04;42.22;41.06;43.24;;
42701;Laerm;28316;49.504;8.526;2022-12-19T04:35:29;42.30;41.14;43.19;;
42701;Laerm;28316;49.504;8.526;2022-12-19T04:37:55;42.32;41.14;43.34;;
42701;Laerm;28316;49.504;8.526;2022-12-19T04:40:21;42.35;41.14;43.39;;
42701;Laerm;28316;49.504;8.526;2022-12-19T04:42:47;42.38;41.14;43.39;;
42701;Laerm;28316;49.504;8.526;2022-12-19T04:45:12;42.40;41.26;43.44;;
42701;Laerm;28316;49.504;8.526;2022-12-19T04:47:38;42.40;41.14;43.34;;
42701;Laerm;28316;49.504;8.526;2022-12-19T04:50:04;42.38;41.30;43.49;;
42701;Laerm;28316;49.504;8.526;2022-12-19T04:52:30;42.37;41.30;43.39;;
42701;Laerm;28316;49.504;8.526;2022-12-19T04:54:56;42.37;41.06;43.39;;
42701;Laerm;28316;49.504;8.526;2022-12-19T04:57:21;42.39;41.22;43.63;;
42701;Laerm;28316;49.504;8.526;2022-12-19T04:59:47;42.42;41.14;43.44;;
42701;Laerm;28316;49.504;8.526;2022-12-19T05:02:13;42.42;41.14;43.49;;
42701;Laerm;28316;49.504;8.526;2022-12-19T05:04:39;42.43;41.22;43.39;;
42701;Laerm;28316;49.504;8.526;2022-12-19T05:07:04;42.45;41.22;44.80;;
42701;Laerm;28316;49.504;8.526;2022-12-19T05:09:30;42.47;41.22;43.54;;
42701;Laerm;28316;49.504;8.526;2022-12-19T05:11:55;42.46;41.30;43.39;;
42701;Laerm;28316;49.504;8.526;2022-12-19T05:14:21;42.47;41.22;43.54;;
42701;Laerm;28316;49.504;8.526;2022-12-19T05:16:47;42.47;41.22;43.72;;
42701;Laerm;28316;49.504;8.526;2022-12-19T05:19:13;42.48;41.14;43.68;;
42701;Laerm;28316;49.504;8.526;2022-12-19T05:21:40;42.48;40.89;43.81;;
42701;Laerm;28316;49.504;8.526;2022-12-19T05:24:06;42.48;41.46;43.44;;
42701;Laerm;28316;49.504;8.526;2022-12-19T05:26:38;42.48;41.06;43.63;;
42701;Laerm;28316;49.504;8.526;2022-12-19T05:29:04;42.48;41.22;43.54;;
42701;Laerm;28316;49.504;8.526;2022-12-19T05:31:32;42.47;41.38;43.39;;
42701;Laerm;28316;49.504;8.526;2022-12-19T05:33:57;42.46;41.22;43.54;;
42701;Laerm;28316;49.504;8.526;2022-12-19T05:36:23;42.48;41.14;43.58;;
42701;Laerm;28316;49.504;8.526;2022-12-19T05:38:49;42.48;41.38;43.49;;
42701;Laerm;28316;49.504;8.526;2022-12-19T05:41:20;42.47;41.30;43.58;;
42701;Laerm;28316;49.504;8.526;2022-12-19T05:43:50;42.48;41.22;43.49;;
42701;Laerm;28316;49.504;8.526;2022-12-19T05:46:17;42.48;41.06;43.44;;
42701;Laerm;28316;49.504;8.526;2022-12-19T05:48:43;42.47;41.14;43.63;;
42701;Laerm;28316;49.504;8.526;2022-12-19T05:51:09;42.48;41.30;43.44;;
42701;Laerm;28316;49.504;8.526;2022-12-19T05:53:36;42.48;41.14;43.58;;
42701;Laerm;28316;49.504;8.526;2022-12-19T05:56:11;42.49;41.38;43.68;;
42701;Laerm;28316;49.504;8.526;2022-12-19T05:58:39;42.48;41.14;43.63;;
42701;Laerm;28316;49.504;8.526;2022-12-19T06:01:13;42.48;41.30;43.49;;
42701;Laerm;28316;49.504;8.526;2022-12-19T06:03:39;42.48;41.30;43.54;;
42701;Laerm;28316;49.504;8.526;2022-12-19T06:06:10;42.49;41.22;43.58;;
42701;Laerm;28316;49.504;8.526;2022-12-19T06:08:36;42.48;41.30;43.49;;
42701;Laerm;28316;49.504;8.526;2022-12-19T06:11:04;42.48;41.38;43.68;;
42701;Laerm;28316;49.504;8.526;2022-12-19T06:13:30;42.49;41.30;43.54;;
42701;Laerm;28316;49.504;8.526;2022-12-19T06:15:58;42.49;41.06;43.54;;
42701;Laerm;28316;49.504;8.526;2022-12-19T06:18:25;42.50;41.38;43.49;;
42701;Laerm;28316;49.504;8.526;2022-12-19T06:21:01;42.50;41.30;43.77;;
42701;Laerm;28316;49.504;8.526;2022-12-19T06:23:30;42.50;41.38;43.54;;
42701;Laerm;28316;49.504;8.526;2022-12-19T06:25:57;42.51;41.38;43.49;;
42701;Laerm;28316;49.504;8.526;2022-12-19T06:28:27;42.50;41.38;43.49;;
42701;Laerm;28316;49.504;8.526;2022-12-19T06:31:02;42.51;41.22;43.58;;
42701;Laerm;28316;49.504;8.526;2022-12-19T06:33:29;42.51;41.06;43.58;;
42701;Laerm;28316;49.504;8.526;2022-12-19T06:36:04;42.51;41.22;43.39;;
42701;Laerm;28316;49.504;8.526;2022-12-19T06:38:32;42.52;41.30;43.81;;
42701;Laerm;28316;49.504;8.526;2022-12-19T06:40:57;42.51;41.38;43.58;;
42701;Laerm;28316;49.504;8.526;2022-12-19T06:43:42;42.54;41.30;45.11;;
42701;Laerm;28316;49.504;8.526;2022-12-19T06:46:08;42.52;41.46;48.91;;
42701;Laerm;28316;49.504;8.526;2022-12-19T06:48:34;42.52;41.38;43.58;;
42701;Laerm;28316;49.504;8.526;2022-12-19T06:51:00;42.52;41.38;43.54;;
42701;Laerm;28316;49.504;8.526;2022-12-19T06:53:26;42.52;41.14;43.39;;
42701;Laerm;28316;49.504;8.526;2022-12-19T06:55:56;42.52;41.30;43.58;;
42701;Laerm;28316;49.504;8.526;2022-12-19T06:58:23;42.52;41.46;43.63;;
42701;Laerm;28316;49.504;8.526;2022-12-19T07:00:49;42.51;41.30;43.58;;
42701;Laerm;28316;49.504;8.526;2022-12-19T07:03:24;42.51;41.30;43.54;;
42701;Laerm;28316;49.504;8.526;2022-12-19T07:05:52;42.51;41.14;43.63;;
42701;Laerm;28316;49.504;8.526;2022-12-19T07:08:18;42.51;41.30;43.49;;
42701;Laerm;28316;49.504;8.526;2022-12-19T07:10:43;42.50;41.46;43.49;;
42701;Laerm;28316;49.504;8.526;2022-12-19T07:13:09;42.49;41.38;43.54;;
42701;Laerm;28316;49.504;8.526;2022-12-19T07:15:35;42.49;41.22;43.58;;
42701;Laerm;28316;49.504;8.526;2022-12-19T07:18:03;42.49;41.38;43.54;;
42701;Laerm;28316;49.504;8.526;2022-12-19T07:20:32;42.48;41.22;43.51;;
42701;Laerm;28316;49.504;8.526;2022-12-19T07:22:58;42.48;41.38;43.54;;
42701;Laerm;28316;49.504;8.526;2022-12-19T07:25:24;42.48;40.98;43.44;;
42701;Laerm;28316;49.504;8.526;2022-12-19T07:27:51;42.47;41.30;43.49;;
42701;Laerm;28316;49.504;8.526;2022-12-19T07:30:17;42.48;41.38;43.58;;
42701;Laerm;28316;49.504;8.526;2022-12-19T07:32:43;42.48;41.30;43.39;;
42701;Laerm;28316;49.504;8.526;2022-12-19T07:35:09;42.49;41.22;43.77;;
42701;Laerm;28316;49.504;8.526;2022-12-19T07:37:34;42.48;41.22;43.77;;
42701;Laerm;28316;49.504;8.526;2022-12-19T07:40:00;42.48;41.30;43.49;;
42701;Laerm;28316;49.504;8.526;2022-12-19T07:42:26;42.47;41.38;43.44;;
42701;Laerm;28316;49.504;8.526;2022-12-19T07:44:52;42.49;41.30;43.58;;
42701;Laerm;28316;49.504;8.526;2022-12-19T07:47:17;42.49;41.22;43.44;;
42701;Laerm;28316;49.504;8.526;2022-12-19T07:49:43;42.49;41.30;43.58;;
42701;Laerm;28316;49.504;8.526;2022-12-19T07:52:09;42.48;41.38;43.54;;
42701;Laerm;28316;49.504;8.526;2022-12-19T07:54:35;42.49;41.30;43.39;;
42701;Laerm;28316;49.504;8.526;2022-12-19T07:57:01;42.50;41.38;43.46;;
42701;Laerm;28316;49.504;8.526;2022-12-19T07:59:26;42.49;41.30;43.68;;
42701;Laerm;28316;49.504;8.526;2022-12-19T08:01:52;42.51;41.30;43.54;;
42701;Laerm;28316;49.504;8.526;2022-12-19T08:04:18;42.50;41.38;43.54;;
42701;Laerm;28316;49.504;8.526;2022-12-19T08:06:44;42.51;41.46;43.54;;
42701;Laerm;28316;49.504;8.526;2022-12-19T08:09:11;42.50;41.30;43.58;;
42701;Laerm;28316;49.504;8.526;2022-12-19T08:11:37;42.51;41.30;43.54;;
42701;Laerm;28316;49.504;8.526;2022-12-19T08:14:03;42.52;41.22;43.49;;
42701;Laerm;28316;49.504;8.526;2022-12-19T08:16:29;42.51;41.30;43.54;;
42701;Laerm;28316;49.504;8.526;2022-12-19T08:18:54;42.53;41.30;45.23;;
42701;Laerm;28316;49.504;8.526;2022-12-19T08:21:21;42.52;41.38;43.54;;
42701;Laerm;28316;49.504;8.526;2022-12-19T08:23:47;42.52;41.46;43.58;;
42701;Laerm;28316;49.504;8.526;2022-12-19T08:26:16;42.52;41.30;43.77;;
42701;Laerm;28316;49.504;8.526;2022-12-19T08:28:46;42.53;41.46;43.68;;
42701;Laerm;28316;49.504;8.526;2022-12-19T08:31:16;42.54;41.38;43.54;;
42701;Laerm;28316;49.504;8.526;2022-12-19T08:33:42;42.53;41.22;43.63;;
42701;Laerm;28316;49.504;8.526;2022-12-19T08:36:13;42.53;41.30;43.54;;
42701;Laerm;28316;49.504;8.526;2022-12-19T08:38:40;42.53;41.22;43.68;;
42701;Laerm;28316;49.504;8.526;2022-12-19T08:41:07;42.53;41.30;43.54;;
42701;Laerm;28316;49.504;8.526;2022-12-19T08:43:33;42.53;41.14;43.54;;
42701;Laerm;28316;49.504;8.526;2022-12-19T08:45:59;42.53;41.46;43.49;;
42701;Laerm;28316;49.504;8.526;2022-12-19T08:48:25;42.53;41.22;43.58;;
42701;Laerm;28316;49.504;8.526;2022-12-19T08:50:57;42.53;41.30;43.49;;
42701;Laerm;28316;49.504;8.526;2022-12-19T08:53:26;42.54;41.22;47.08;;
42701;Laerm;28316;49.504;8.526;2022-12-19T08:56:00;42.54;41.30;43.46;;
42701;Laerm;28316;49.504;8.526;2022-12-19T08:58:28;42.54;41.46;43.54;;
42701;Laerm;28316;49.504;8.526;2022-12-19T09:00:58;42.54;41.30;44.27;;
42701;Laerm;28316;49.504;8.526;2022-12-19T09:03:25;42.53;40.98;44.83;;
42701;Laerm;28316;49.504;8.526;2022-12-19T09:05:58;42.54;41.38;43.49;;
42701;Laerm;28316;49.504;8.526;2022-12-19T09:08:25;42.53;41.38;43.54;;
42701;Laerm;28316;49.504;8.526;2022-12-19T09:10:58;42.54;41.38;43.63;;
42701;Laerm;28316;49.504;8.526;2022-12-19T09:13:28;42.54;41.22;43.68;;
42701;Laerm;28316;49.504;8.526;2022-12-19T09:16:14;42.54;40.98;44.80;;
42701;Laerm;28316;49.504;8.526;2022-12-19T09:18:41;42.54;41.14;45.17;;
42701;Laerm;28316;49.504;8.526;2022-12-19T09:21:08;42.55;41.38;43.63;;
42701;Laerm;28316;49.504;8.526;2022-12-19T09:23:34;42.54;41.06;43.49;;
42701;Laerm;28316;49.504;8.526;2022-12-19T09:26:09;42.54;41.30;44.47;;
42701;Laerm;28316;49.504;8.526;2022-12-19T09:28:37;42.54;41.22;43.54;;
42701;Laerm;28316;49.504;8.526;2022-12-19T09:31:06;42.54;41.22;43.58;;
42701;Laerm;28316;49.504;8.526;2022-12-19T09:33:34;42.54;41.14;43.58;;
42701;Laerm;28316;49.504;8.526;2022-12-19T09:36:01;42.54;41.46;43.44;;
42701;Laerm;28316;49.504;8.526;2022-12-19T09:38:28;42.54;41.38;43.72;;
42701;Laerm;28316;49.504;8.526;2022-12-19T09:45:03;42.54;41.22;43.68;;
42701;Laerm;28316;49.504;8.526;2022-12-19T09:47:37;42.55;41.30;43.63;;
42701;Laerm;28316;49.504;8.526;2022-12-19T09:53:28;42.54;41.22;43.58;;
42701;Laerm;28316;49.504;8.526;2022-12-19T09:55:57;42.54;41.22;43.63;;
42701;Laerm;28316;49.504;8.526;2022-12-19T09:58:35;42.54;41.06;43.58;;
42701;Laerm;28316;49.504;8.526;2022-12-19T10:01:06;42.53;41.22;43.54;;
42701;Laerm;28316;49.504;8.526;2022-12-19T10:03:43;42.54;41.38;43.58;;
42701;Laerm;28316;49.504;8.526;2022-12-19T10:06:22;42.54;41.22;43.72;;
42701;Laerm;28316;49.504;8.526;2022-12-19T10:08:50;42.54;41.38;43.54;;
42701;Laerm;28316;49.504;8.526;2022-12-19T10:14:20;42.54;41.30;43.86;;
42701;Laerm;28316;49.504;8.526;2022-12-19T10:28:31;42.56;41.22;43.90;;
42701;Laerm;28316;49.504;8.526;2022-12-19T10:31:22;42.55;41.14;43.72;;
42701;Laerm;28316;49.504;8.526;2022-12-19T10:36:43;42.55;41.22;44.39;;
42701;Laerm;28316;49.504;8.526;2022-12-19T10:39:27;42.55;41.06;43.63;;
42701;Laerm;28316;49.504;8.526;2022-12-19T10:42:06;42.56;41.38;43.81;;
42701;Laerm;28316;49.504;8.526;2022-12-19T10:44:36;42.55;41.22;43.63;;
42701;Laerm;28316;49.504;8.526;2022-12-19T10:47:03;42.56;41.30;43.54;;
42701;Laerm;28316;49.504;8.526;2022-12-19T10:49:29;42.56;41.22;43.63;;
42701;Laerm;28316;49.504;8.526;2022-12-19T11:02:41;42.56;41.46;43.63;;
42701;Laerm;28316;49.504;8.526;2022-12-19T11:05:30;42.55;41.38;43.58;;
42701;Laerm;28316;49.504;8.526;2022-12-19T11:15:57;42.55;41.22;43.90;;
42701;Laerm;28316;49.504;8.526;2022-12-19T11:18:36;42.54;41.30;43.54;;
42701;Laerm;28316;49.504;8.526;2022-12-19T11:21:12;42.56;41.38;43.54;;
42701;Laerm;28316;49.504;8.526;2022-12-19T11:26:44;42.55;41.22;43.68;;
42701;Laerm;28316;49.504;8.526;2022-12-19T11:29:26;42.55;41.38;43.68;;
42701;Laerm;28316;49.504;8.526;2022-12-19T11:32:00;42.55;41.30;43.68;;
42701;Laerm;28316;49.504;8.526;2022-12-19T11:34:30;42.56;41.38;43.63;;
42701;Laerm;28316;49.504;8.526;2022-12-19T11:37:16;42.55;41.38;43.72;;
42701;Laerm;28316;49.504;8.526;2022-12-19T11:39:49;42.54;41.14;43.58;;
42701;Laerm;28316;49.504;8.526;2022-12-19T11:43:03;42.54;41.22;43.63;;
42701;Laerm;28316;49.504;8.526;2022-12-19T11:45:38;42.54;41.22;43.72;;
42701;Laerm;28316;49.504;8.526;2022-12-19T11:48:22;42.54;41.22;43.54;;
42701;Laerm;28316;49.504;8.526;2022-12-19T11:56:56;42.55;41.38;45.20;;
42701;Laerm;28316;49.504;8.526;2022-12-19T11:59:29;42.54;41.53;43.54;;
42701;Laerm;28316;49.504;8.526;2022-12-19T12:02:50;42.54;41.22;43.58;;
42701;Laerm;28316;49.504;8.526;2022-12-19T12:11:24;42.55;41.46;43.58;;
42701;Laerm;28316;49.504;8.526;2022-12-19T12:17:00;42.54;41.46;43.49;;
42701;Laerm;28316;49.504;8.526;2022-12-19T12:19:45;42.55;41.30;43.72;;
42701;Laerm;28316;49.504;8.526;2022-12-19T12:30:41;42.53;41.30;43.63;;
42701;Laerm;28316;49.504;8.526;2022-12-19T12:33:39;42.54;41.30;43.72;;
42701;Laerm;28316;49.504;8.526;2022-12-19T12:36:30;42.54;41.30;43.58;;
42701;Laerm;28316;49.504;8.526;2022-12-19T12:39:19;42.55;41.38;43.77;;
42701;Laerm;28316;49.504;8.526;2022-12-19T12:44:36;42.55;41.38;43.63;;
42701;Laerm;28316;49.504;8.526;2022-12-19T12:47:23;42.54;41.14;43.63;;
42701;Laerm;28316;49.504;8.526;2022-12-19T12:49:57;42.55;41.14;43.49;;
42701;Laerm;28316;49.504;8.526;2022-12-19T12:52:35;42.56;41.22;43.63;;
42701;Laerm;28316;49.504;8.526;2022-12-19T12:55:05;42.55;41.46;43.72;;
42701;Laerm;28316;49.504;8.526;2022-12-19T12:57:38;42.55;41.22;43.58;;
42701;Laerm;28316;49.504;8.526;2022-12-19T13:00:26;42.54;41.38;43.54;;
42701;Laerm;28316;49.504;8.526;2022-12-19T13:08:46;42.55;41.22;45.28;;
42701;Laerm;28316;49.504;8.526;2022-12-19T13:11:33;42.53;41.14;43.89;;
42701;Laerm;28316;49.504;8.526;2022-12-19T13:17:07;42.53;41.30;43.54;;
42701;Laerm;28316;49.504;8.526;2022-12-19T13:19:38;42.55;41.38;44.19;;
42701;Laerm;28316;49.504;8.526;2022-12-19T13:24:57;42.53;41.22;43.58;;
42701;Laerm;28316;49.504;8.526;2022-12-19T13:27:57;42.54;41.14;43.68;;
42701;Laerm;28316;49.504;8.526;2022-12-19T13:30:23;42.55;41.30;43.68;;
42701;Laerm;28316;49.504;8.526;2022-12-19T13:37:49;42.54;41.14;43.63;;
42701;Laerm;28316;49.504;8.526;2022-12-19T13:40:58;42.55;41.38;43.90;;
42701;Laerm;28316;49.504;8.526;2022-12-19T13:43:38;42.56;41.30;43.63;;
42701;Laerm;28316;49.504;8.526;2022-12-19T13:46:39;42.55;41.14;43.72;;
42701;Laerm;28316;49.504;8.526;2022-12-19T13:49:28;42.56;41.22;43.68;;
42701;Laerm;28316;49.504;8.526;2022-12-19T13:51:57;42.55;41.30;43.58;;
42701;Laerm;28316;49.504;8.526;2022-12-19T13:54:26;42.56;41.30;43.68;;
42701;Laerm;28316;49.504;8.526;2022-12-19T13:56:54;42.57;40.98;43.81;;
42701;Laerm;28316;49.504;8.526;2022-12-19T13:59:23;42.56;41.46;43.63;;
42701;Laerm;28316;49.504;8.526;2022-12-19T14:01:52;42.57;41.38;43.54;;
42701;Laerm;28316;49.504;8.526;2022-12-19T14:04:28;42.57;41.46;43.63;;
42701;Laerm;28316;49.504;8.526;2022-12-19T14:07:21;42.57;41.30;43.72;;
42701;Laerm;28316;49.504;8.526;2022-12-19T14:09:51;42.57;41.30;43.58;;
42701;Laerm;28316;49.504;8.526;2022-12-19T14:12:24;42.56;41.30;43.63;;
42701;Laerm;28316;49.504;8.526;2022-12-19T14:17:50;42.58;41.30;43.55;;
42701;Laerm;28316;49.504;8.526;2022-12-19T14:20:27;42.57;41.38;43.63;;
42701;Laerm;28316;49.504;8.526;2022-12-19T14:23:00;42.57;41.38;43.54;;
42701;Laerm;28316;49.504;8.526;2022-12-19T14:25:47;42.58;41.22;43.64;;
42701;Laerm;28316;49.504;8.526;2022-12-19T14:28:27;42.57;41.22;43.68;;
42701;Laerm;28316;49.504;8.526;2022-12-19T14:31:04;42.58;41.38;43.72;;
42701;Laerm;28316;49.504;8.526;2022-12-19T14:33:37;42.57;41.38;44.43;;
42701;Laerm;28316;49.504;8.526;2022-12-19T14:36:05;42.57;41.22;43.68;;
42701;Laerm;28316;49.504;8.526;2022-12-19T14:38:32;42.57;41.30;43.58;;
42701;Laerm;28316;49.504;8.526;2022-12-19T14:41:00;42.58;41.46;43.58;;
42701;Laerm;28316;49.504;8.526;2022-12-19T14:43:29;42.58;41.06;43.77;;
42701;Laerm;28316;49.504;8.526;2022-12-19T14:48:50;42.57;41.38;43.77;;
42701;Laerm;28316;49.504;8.526;2022-12-19T14:51:34;42.58;41.06;43.63;;
42701;Laerm;28316;49.504;8.526;2022-12-19T14:59:27;42.58;41.30;43.68;;
42701;Laerm;28316;49.504;8.526;2022-12-19T15:04:45;42.57;41.30;43.54;;
42701;Laerm;28316;49.504;8.526;2022-12-19T15:07:22;42.59;41.22;44.11;;
42701;Laerm;28316;49.504;8.526;2022-12-19T15:12:30;42.59;41.46;43.58;;
42701;Laerm;28316;49.504;8.526;2022-12-19T15:15:24;42.59;41.46;43.58;;
42701;Laerm;28316;49.504;8.526;2022-12-19T15:17:53;42.58;41.38;43.90;;
42701;Laerm;28316;49.504;8.526;2022-12-19T15:20:20;42.60;41.14;43.63;;
42701;Laerm;28316;49.504;8.526;2022-12-19T15:22:46;42.59;41.14;43.68;;
42701;Laerm;28316;49.504;8.526;2022-12-19T15:25:15;42.60;41.46;43.64;;
42701;Laerm;28316;49.504;8.526;2022-12-19T15:27:45;42.60;41.22;43.68;;
42701;Laerm;28316;49.504;8.526;2022-12-19T15:30:20;42.59;41.61;43.77;;
42701;Laerm;28316;49.504;8.526;2022-12-19T15:32:46;42.60;41.46;43.68;;
42701;Laerm;28316;49.504;8.526;2022-12-19T15:35:17;42.59;41.46;43.68;;
42701;Laerm;28316;49.504;8.526;2022-12-19T15:37:44;42.60;41.46;43.58;;
42701;Laerm;28316;49.504;8.526;2022-12-19T15:40:15;42.60;41.41;43.63;;
42701;Laerm;28316;49.504;8.526;2022-12-19T15:42:43;42.61;41.30;43.72;;
42701;Laerm;28316;49.504;8.526;2022-12-19T15:45:14;42.60;41.22;43.63;;
42701;Laerm;28316;49.504;8.526;2022-12-19T15:47:42;42.60;41.30;43.58;;
42701;Laerm;28316;49.504;8.526;2022-12-19T15:50:22;42.61;41.46;43.81;;
42701;Laerm;28316;49.504;8.526;2022-12-19T15:52:48;42.60;41.38;43.58;;
42701;Laerm;28316;49.504;8.526;2022-12-19T15:55:17;42.60;41.14;43.63;;
42701;Laerm;28316;49.504;8.526;2022-12-19T15:57:54;42.58;41.30;43.54;;
42701;Laerm;28316;49.504;8.526;2022-12-19T16:00:24;42.57;41.38;43.49;;
42701;Laerm;28316;49.504;8.526;2022-12-19T16:02:53;42.56;41.22;43.63;;
42701;Laerm;28316;49.504;8.526;2022-12-19T16:05:23;42.56;41.22;43.72;;
42701;Laerm;28316;49.504;8.526;2022-12-19T16:07:50;42.56;41.22;43.77;;
42701;Laerm;28316;49.504;8.526;2022-12-19T16:10:16;42.57;41.14;43.49;;
42701;Laerm;28316;49.504;8.526;2022-12-19T16:12:50;42.55;41.30;43.81;;
42701;Laerm;28316;49.504;8.526;2022-12-19T16:15:31;42.54;41.22;43.68;;
42701;Laerm;28316;49.504;8.526;2022-12-19T16:18:01;42.46;41.30;43.58;;
42701;Laerm;28316;49.504;8.526;2022-12-19T16:20:34;42.04;40.13;43.29;;
42701;Laerm;28316;49.504;8.526;2022-12-19T16:23:02;42.34;41.14;43.39;;